Terminal Aerodrome Forecast
Issued by NWS Denver/Boulder, CO

Home | Current Version | Previous Version | Text Only | Print | Product List | Glossary On
Versions: 1 2 3 4 5 6 7 8 9 10 11 12 13 14 15 16 17 18 19 20 21 22 23 24 25 26 27 28 29 30 31 32 33 34 35 36 37 38 39 40 41 42 43 44 45 46 47 48 49 50
000
FTUS45 KBOU 220124 AAB
TAFDEN
TAF AMD
KDEN 220124Z 2201/2306 02012KT P6SM BKN100 BKN150
     FM220200 36012G18KT P6SM SCT070 BKN100
     FM220300 35008KT P6SM BKN060 OVC080
      TEMPO 2204/2208 -SHRA BKN045 OVC060
     FM221000 24008KT P6SM SCT060 SCT090 BKN120
     FM221300 30011KT P6SM FEW120 SCT220
     FM222000 35013G22KT P6SM VCSH SCT070 BKN100
     FM230000 02018G34KT P6SM VCTS BKN035CB BKN050
      TEMPO 2300/2304 3SM -RA BR SCT020 OVC035=

USA.gov is the U.S. government's official web portal to all federal, state and local government web resources and services.